Time;durP1;ratioP1;P1;durP2;ratioP2;P2;SDS_P1;SDS_P2;PMS_P1;PMS_P2;Temp;Humidity;BMP_temperature;BMP_pressure;BME280_temperature;BME280_humidity;BME280_pressure;Samples;Min_cycle;Max_cycle;Signal;HPM_P1;HPM_P2
2023/05/01 00:00:44;;;;;;;5.63;5.13;;;;;;;;;;5075787;28;20224;-68
2023/05/01 00:03:10;;;;;;;5.35;4.85;;;;;;;;;;5076272;28;20213;-68
2023/05/01 00:05:36;;;;;;;5.95;5.30;;;;;;;;;;5076072;28;20212;-68
2023/05/01 00:08:03;;;;;;;6.88;5.72;;;;;;;;;;5076972;28;20216;-68
2023/05/01 00:10:30;;;;;;;6.05;5.55;;;;;;;;;;5079570;28;20272;-68
2023/05/01 00:12:57;;;;;;;5.88;5.32;;;;;;;;;;5071732;28;20216;-68
2023/05/01 00:15:23;;;;;;;6.30;5.82;;;;;;;;;;5080284;28;20220;-68
2023/05/01 00:17:50;;;;;;;6.05;5.55;;;;;;;;;;5079752;28;20446;-67
2023/05/01 00:20:16;;;;;;;8.77;6.15;;;;;;;;;;5079431;28;20708;-68
2023/05/01 00:22:42;;;;;;;6.28;5.68;;;;;;;;;;5084915;28;20224;-68
2023/05/01 00:25:09;;;;;;;6.55;6.05;;;;;;;;;;5084845;28;20197;-68
2023/05/01 00:27:35;;;;;;;7.95;5.95;;;;;;;;;;5084741;28;20532;-68
2023/05/01 00:30:04;;;;;;;6.93;6.30;;;;;;;;;;5084862;28;20508;-67
2023/05/01 00:32:30;;;;;;;7.45;6.70;;;;;;;;;;5084881;28;20421;-67
2023/05/01 00:34:56;;;;;;;7.53;6.82;;;;;;;;;;5084635;28;20432;-67
2023/05/01 00:37:22;;;;;;;9.23;7.30;;;;;;;;;;5084691;28;20200;-67
2023/05/01 00:39:49;;;;;;;7.93;7.18;;;;;;;;;;5084286;28;20196;-67
2023/05/01 00:42:15;;;;;;;6.63;6.13;;;;;;;;;;5084653;28;20216;-68
2023/05/01 00:44:41;;;;;;;7.35;6.55;;;;;;;;;;5084665;28;20209;-68
2023/05/01 00:47:09;;;;;;;7.07;6.43;;;;;;;;;;5084595;28;20196;-68
2023/05/01 00:49:35;;;;;;;7.03;6.43;;;;;;;;;;5084414;28;20238;-68
2023/05/01 00:52:01;;;;;;;7.88;7.20;;;;;;;;;;5084638;28;20193;-68
2023/05/01 00:54:28;;;;;;;6.95;6.38;;;;;;;;;;5084374;28;20197;-68
2023/05/01 00:56:54;;;;;;;7.55;6.55;;;;;;;;;;5084218;28;20196;-68
2023/05/01 00:59:21;;;;;;;7.38;6.55;;;;;;;;;;5084865;28;20534;-68
2023/05/01 01:01:47;;;;;;;7.22;6.50;;;;;;;;;;5084209;28;20234;-68
2023/05/01 01:04:15;;;;;;;7.68;6.80;;;;;;;;;;5084422;28;20218;-68
2023/05/01 01:06:46;;;;;;;7.22;6.63;;;;;;;;;;5084024;28;20205;-68
2023/05/01 01:09:18;;;;;;;6.68;6.10;;;;;;;;;;5084305;28;20204;-68
2023/05/01 01:11:50;;;;;;;6.63;6.10;;;;;;;;;;5083780;28;20256;-68
2023/05/01 01:14:18;;;;;;;7.72;6.68;;;;;;;;;;5083901;28;20508;-68
2023/05/01 01:16:47;;;;;;;6.50;6.00;;;;;;;;;;5084183;28;20242;-68
2023/05/01 01:19:28;;;;;;;6.03;5.60;;;;;;;;;;5083617;28;20603;-68
2023/05/01 01:21:58;;;;;;;11.93;6.45;;;;;;;;;;5083885;28;20235;-68
2023/05/01 01:24:32;;;;;;;6.75;6.15;;;;;;;;;;5083892;28;20532;-68
2023/05/01 01:27:14;;;;;;;6.55;5.93;;;;;;;;;;5083729;28;20203;-68
2023/05/01 01:30:06;;;;;;;6.47;5.85;;;;;;;;;;5081064;28;20238;-68
2023/05/01 01:32:47;;;;;;;5.80;5.38;;;;;;;;;;5083924;28;20196;-68
2023/05/01 01:35:17;;;;;;;6.90;6.25;;;;;;;;;;5077138;28;20432;-68
2023/05/01 01:37:49;;;;;;;7.13;6.13;;;;;;;;;;5083443;28;20203;-68
2023/05/01 01:40:18;;;;;;;6.00;5.50;;;;;;;;;;5083562;28;20554;-68
2023/05/01 01:42:46;;;;;;;6.65;6.15;;;;;;;;;;5083524;28;20381;-68
2023/05/01 01:45:15;;;;;;;7.18;6.47;;;;;;;;;;5083522;28;20196;-68
2023/05/01 01:47:42;;;;;;;6.88;6.38;;;;;;;;;;5083212;28;20200;-68
2023/05/01 01:50:09;;;;;;;6.93;6.43;;;;;;;;;;5083411;28;20203;-68
2023/05/01 01:52:38;;;;;;;7.22;6.32;;;;;;;;;;5083372;28;20211;-68
2023/05/01 01:55:06;;;;;;;6.85;6.07;;;;;;;;;;5075505;28;20265;-68
2023/05/01 01:57:33;;;;;;;6.72;6.00;;;;;;;;;;5083141;28;20197;-68
2023/05/01 01:59:59;;;;;;;9.27;6.32;;;;;;;;;;5083337;28;20205;-68
2023/05/01 02:02:26;;;;;;;7.68;6.93;;;;;;;;;;5082839;28;20476;-68
2023/05/01 02:04:55;;;;;;;6.40;5.80;;;;;;;;;;5083104;28;20200;-68
2023/05/01 02:07:22;;;;;;;6.68;6.13;;;;;;;;;;5083122;28;20201;-68
2023/05/01 02:09:51;;;;;;;7.13;6.53;;;;;;;;;;5082816;28;20230;-68
2023/05/01 02:12:18;;;;;;;8.32;6.60;;;;;;;;;;5082986;28;20211;-68
2023/05/01 02:14:45;;;;;;;6.57;6.13;;;;;;;;;;5082689;28;20507;-68
2023/05/01 02:17:13;;;;;;;8.57;6.72;;;;;;;;;;5082964;28;20249;-68
2023/05/01 02:19:40;;;;;;;6.03;5.60;;;;;;;;;;5082674;28;20201;-68
2023/05/01 02:22:07;;;;;;;7.05;6.45;;;;;;;;;;5082749;28;20213;-68
2023/05/01 02:24:33;;;;;;;6.18;5.53;;;;;;;;;;5082589;28;20241;-68
2023/05/01 02:27:05;;;;;;;6.65;5.97;;;;;;;;;;5082472;28;20267;-68
2023/05/01 02:29:32;;;;;;;5.88;5.45;;;;;;;;;;5082424;28;20228;-68
2023/05/01 02:31:59;;;;;;;6.65;6.15;;;;;;;;;;5081853;28;20212;-68
2023/05/01 02:34:26;;;;;;;6.15;5.65;;;;;;;;;;5082434;28;20197;-68
2023/05/01 02:36:52;;;;;;;7.38;5.72;;;;;;;;;;5082519;28;20200;-68
2023/05/01 02:39:18;;;;;;;6.43;5.82;;;;;;;;;;5082278;28;20200;-68
2023/05/01 02:41:45;;;;;;;6.53;5.93;;;;;;;;;;5082627;28;20216;-68
2023/05/01 02:44:13;;;;;;;6.00;5.50;;;;;;;;;;5082416;28;20425;-68
2023/05/01 02:46:42;;;;;;;5.97;5.47;;;;;;;;;;5082194;28;20197;-68
2023/05/01 02:49:09;;;;;;;5.80;5.30;;;;;;;;;;5082165;28;20222;-68
2023/05/01 02:51:36;;;;;;;9.60;5.70;;;;;;;;;;5082488;28;20211;-68
2023/05/01 02:54:03;;;;;;;5.93;5.43;;;;;;;;;;5082090;28;20188;-68
2023/05/01 02:56:29;;;;;;;7.88;5.25;;;;;;;;;;5081971;28;20196;-68
2023/05/01 02:58:55;;;;;;;6.70;5.75;;;;;;;;;;5082004;28;20204;-68
2023/05/01 03:01:23;;;;;;;6.60;5.90;;;;;;;;;;5082216;28;20208;-68
2023/05/01 03:03:49;;;;;;;6.40;5.80;;;;;;;;;;5082156;28;20197;-67
2023/05/01 03:06:15;;;;;;;8.70;6.38;;;;;;;;;;5082050;28;20242;-67
2023/05/01 03:08:42;;;;;;;8.75;5.72;;;;;;;;;;5081735;28;20203;-67
2023/05/01 03:11:08;;;;;;;6.80;6.20;;;;;;;;;;5081809;28;20210;-68
2023/05/01 03:13:34;;;;;;;6.30;5.85;;;;;;;;;;5082030;28;20372;-68
2023/05/01 03:16:01;;;;;;;7.18;6.57;;;;;;;;;;5081912;28;20411;-68
2023/05/01 03:18:28;;;;;;;6.80;6.30;;;;;;;;;;5081701;28;20219;-68
2023/05/01 03:20:55;;;;;;;6.70;6.20;;;;;;;;;;5081912;28;20449;-68
2023/05/01 03:23:22;;;;;;;6.82;6.13;;;;;;;;;;5081820;28;20216;-68
2023/05/01 03:25:48;;;;;;;6.63;6.03;;;;;;;;;;5081990;28;20197;-68
2023/05/01 03:28:15;;;;;;;7.90;7.10;;;;;;;;;;5081981;28;20287;-68
2023/05/01 03:30:41;;;;;;;7.47;6.75;;;;;;;;;;5081897;28;20425;-68
2023/05/01 03:33:07;;;;;;;7.47;6.72;;;;;;;;;;5079272;28;20192;-68
2023/05/01 03:35:35;;;;;;;7.22;6.63;;;;;;;;;;5081896;28;20204;-68
2023/05/01 03:38:01;;;;;;;7.18;6.57;;;;;;;;;;5081709;28;20200;-68
2023/05/01 03:40:28;;;;;;;7.15;6.55;;;;;;;;;;5081524;28;20446;-68
2023/05/01 03:42:54;;;;;;;6.28;5.88;;;;;;;;;;5084041;28;20239;-66
2023/05/01 03:45:20;;;;;;;6.82;6.32;;;;;;;;;;5085853;28;20196;-67
2023/05/01 03:47:47;;;;;;;7.40;6.65;;;;;;;;;;5085581;28;20203;-68
2023/05/01 03:50:13;;;;;;;7.65;6.88;;;;;;;;;;5085653;28;20516;-67
2023/05/01 03:52:41;;;;;;;9.23;6.95;;;;;;;;;;5085552;28;20234;-67
2023/05/01 03:55:08;;;;;;;7.20;6.43;;;;;;;;;;5085384;28;20189;-68
2023/05/01 03:57:34;;;;;;;7.20;6.53;;;;;;;;;;5085526;28;20197;-68
2023/05/01 04:00:00;;;;;;;7.03;6.35;;;;;;;;;;5085215;28;20239;-68
2023/05/01 04:02:27;;;;;;;8.00;7.35;;;;;;;;;;5085626;28;20539;-67
2023/05/01 04:04:53;;;;;;;6.97;6.38;;;;;;;;;;5085747;28;20258;-67
2023/05/01 04:07:19;;;;;;;7.85;6.40;;;;;;;;;;5085247;28;20219;-68
2023/05/01 04:09:48;;;;;;;6.97;6.45;;;;;;;;;;5085215;28;20250;-68
2023/05/01 04:12:14;;;;;;;7.30;6.78;;;;;;;;;;5085399;28;20208;-68
2023/05/01 04:14:42;;;;;;;7.47;6.88;;;;;;;;;;5085085;28;20488;-67
2023/05/01 04:17:08;;;;;;;7.18;6.57;;;;;;;;;;5084962;28;20432;-68
2023/05/01 04:19:34;;;;;;;7.63;6.95;;;;;;;;;;5085033;28;20397;-69
2023/05/01 04:22:01;;;;;;;10.88;6.65;;;;;;;;;;5084813;28;20349;-69
2023/05/01 04:24:27;;;;;;;7.50;6.40;;;;;;;;;;5085217;28;20196;-69
2023/05/01 04:26:55;;;;;;;8.07;6.45;;;;;;;;;;5084971;28;20207;-69
2023/05/01 04:29:21;;;;;;;7.40;6.65;;;;;;;;;;5084910;28;20242;-69
2023/05/01 04:31:47;;;;;;;7.03;6.38;;;;;;;;;;5084693;28;20201;-69
2023/05/01 04:34:13;;;;;;;7.35;6.68;;;;;;;;;;5084736;28;20201;-68
2023/05/01 04:36:40;;;;;;;6.88;6.35;;;;;;;;;;5084679;28;20200;-68
2023/05/01 04:39:06;;;;;;;6.38;5.90;;;;;;;;;;5084468;28;20219;-68
2023/05/01 04:41:32;;;;;;;7.20;6.55;;;;;;;;;;5084981;28;20205;-68
2023/05/01 04:44:00;;;;;;;9.15;6.97;;;;;;;;;;5084674;28;20402;-68
2023/05/01 04:46:26;;;;;;;7.93;7.10;;;;;;;;;;5084794;28;20504;-69
2023/05/01 04:48:52;;;;;;;7.95;7.32;;;;;;;;;;5084394;28;20396;-69
2023/05/01 04:51:19;;;;;;;7.53;6.93;;;;;;;;;;5084522;28;20389;-69
2023/05/01 04:53:46;;;;;;;7.68;6.97;;;;;;;;;;5084136;28;20246;-69
2023/05/01 04:56:12;;;;;;;7.75;7.15;;;;;;;;;;5076535;28;20453;-68
2023/05/01 04:58:38;;;;;;;11.00;9.23;;;;;;;;;;5084448;28;20258;-68
2023/05/01 05:01:06;;;;;;;10.55;9.55;;;;;;;;;;5084451;28;20205;-68
2023/05/01 05:03:32;;;;;;;9.15;8.25;;;;;;;;;;5084159;28;20224;-68
2023/05/01 05:05:58;;;;;;;8.88;7.97;;;;;;;;;;5084257;28;20250;-68
2023/05/01 05:08:25;;;;;;;8.13;7.00;;;;;;;;;;5084116;28;20196;-68
2023/05/01 05:10:56;;;;;;;12.25;7.20;;;;;;;;;;5084056;28;20220;-68
2023/05/01 05:13:22;;;;;;;8.73;7.85;;;;;;;;;;5083985;28;20383;-69
2023/05/01 05:15:48;;;;;;;8.25;7.45;;;;;;;;;;5083981;28;20195;-69
2023/05/01 05:18:16;;;;;;;8.60;6.85;;;;;;;;;;5083820;28;20208;-69
2023/05/01 05:20:42;;;;;;;8.02;7.30;;;;;;;;;;5084114;28;20200;-69
2023/05/01 05:23:09;;;;;;;10.85;7.85;;;;;;;;;;5084023;28;20244;-68
2023/05/01 05:25:35;;;;;;;7.63;6.70;;;;;;;;;;5084016;28;20238;-68
2023/05/01 05:28:01;;;;;;;8.10;7.30;;;;;;;;;;5083746;28;20243;-68
2023/05/01 05:30:28;;;;;;;8.50;7.70;;;;;;;;;;5083838;28;20203;-69
2023/05/01 05:32:54;;;;;;;9.02;7.80;;;;;;;;;;5083912;28;20196;-68
2023/05/01 05:35:21;;;;;;;10.65;7.38;;;;;;;;;;5083838;28;20531;-68
2023/05/01 05:37:48;;;;;;;9.73;7.30;;;;;;;;;;5083869;28;20196;-69
2023/05/01 05:40:14;;;;;;;8.07;7.28;;;;;;;;;;5075385;28;20441;-69
2023/05/01 05:42:40;;;;;;;8.95;8.00;;;;;;;;;;5083524;28;20220;-69
2023/05/01 05:45:07;;;;;;;10.40;7.65;;;;;;;;;;5083530;28;20528;-69
2023/05/01 05:47:34;;;;;;;8.02;7.07;;;;;;;;;;5083411;28;20278;-69
2023/05/01 05:50:00;;;;;;;9.35;7.57;;;;;;;;;;5083187;28;20211;-69
2023/05/01 05:52:27;;;;;;;8.50;7.70;;;;;;;;;;5083250;28;20193;-69
2023/05/01 05:54:54;;;;;;;9.43;7.60;;;;;;;;;;5083321;28;20207;-69
2023/05/01 05:57:20;;;;;;;8.77;7.88;;;;;;;;;;5083425;28;20204;-69
2023/05/01 05:59:46;;;;;;;11.25;7.82;;;;;;;;;;5083209;28;20268;-69
2023/05/01 06:02:13;;;;;;;8.50;7.75;;;;;;;;;;5083354;28;20520;-69
2023/05/01 06:04:39;;;;;;;11.13;8.07;;;;;;;;;;5083491;28;20260;-68
2023/05/01 06:07:06;;;;;;;8.00;7.35;;;;;;;;;;5082143;28;20200;-68
2023/05/01 06:09:33;;;;;;;7.50;6.90;;;;;;;;;;5082931;28;20203;-68
2023/05/01 06:12:00;;;;;;;8.35;6.85;;;;;;;;;;5082964;28;20430;-68
2023/05/01 06:14:27;;;;;;;8.63;7.93;;;;;;;;;;5082602;28;20212;-68
2023/05/01 06:16:53;;;;;;;8.40;7.60;;;;;;;;;;5083005;28;20200;-68
2023/05/01 06:19:19;;;;;;;8.52;7.72;;;;;;;;;;5082821;28;20220;-69
2023/05/01 06:21:46;;;;;;;8.52;7.70;;;;;;;;;;5083012;28;20217;-68
2023/05/01 06:24:12;;;;;;;8.32;7.50;;;;;;;;;;5083058;28;20220;-68
2023/05/01 06:26:39;;;;;;;9.13;8.23;;;;;;;;;;5082744;28;20196;-68
2023/05/01 06:29:06;;;;;;;8.60;7.80;;;;;;;;;;5082424;28;20224;-68
2023/05/01 06:31:32;;;;;;;8.10;7.50;;;;;;;;;;5082797;28;20197;-68
2023/05/01 06:33:58;;;;;;;8.18;7.47;;;;;;;;;;5082579;28;20197;-68
2023/05/01 06:36:24;;;;;;;7.70;7.10;;;;;;;;;;5082584;28;20196;-68
2023/05/01 06:38:51;;;;;;;7.90;7.10;;;;;;;;;;5082406;28;20213;-68
2023/05/01 06:41:17;;;;;;;7.53;6.80;;;;;;;;;;5082370;28;20197;-68
2023/05/01 06:43:44;;;;;;;8.30;7.25;;;;;;;;;;5082182;28;20524;-68
2023/05/01 06:46:11;;;;;;;8.13;7.45;;;;;;;;;;5082397;28;20207;-68
2023/05/01 06:48:37;;;;;;;7.75;7.00;;;;;;;;;;5082305;28;20196;-68
2023/05/01 06:51:04;;;;;;;7.40;6.80;;;;;;;;;;5082376;28;20240;-68
2023/05/01 06:53:30;;;;;;;8.27;7.47;;;;;;;;;;5082341;28;20208;-68
2023/05/01 06:55:56;;;;;;;8.60;7.57;;;;;;;;;;5082014;28;20212;-68
2023/05/01 06:58:22;;;;;;;7.60;7.00;;;;;;;;;;5082610;28;20536;-68
2023/05/01 07:00:50;;;;;;;8.07;7.28;;;;;;;;;;5082162;28;20200;-68
2023/05/01 07:03:16;;;;;;;8.65;7.82;;;;;;;;;;5081714;28;20216;-68
2023/05/01 07:05:43;;;;;;;8.63;7.93;;;;;;;;;;5082158;28;20212;-68
2023/05/01 07:08:09;;;;;;;8.60;7.78;;;;;;;;;;5081996;28;20215;-69
2023/05/01 07:10:35;;;;;;;8.30;7.47;;;;;;;;;;5081904;28;20392;-69
2023/05/01 07:13:02;;;;;;;11.65;7.97;;;;;;;;;;5081908;28;20200;-68
2023/05/01 07:15:28;;;;;;;8.80;8.02;;;;;;;;;;5082113;28;20196;-68
2023/05/01 07:17:57;;;;;;;8.93;8.02;;;;;;;;;;5081409;28;20215;-69
2023/05/01 07:20:23;;;;;;;8.27;7.57;;;;;;;;;;5081836;28;20389;-69
2023/05/01 07:22:49;;;;;;;8.95;8.02;;;;;;;;;;5081700;28;20243;-69
2023/05/01 07:25:15;;;;;;;7.70;7.18;;;;;;;;;;5081604;28;20239;-69
2023/05/01 07:27:42;;;;;;;8.88;8.07;;;;;;;;;;5081806;28;20216;-69
2023/05/01 07:30:09;;;;;;;8.50;7.35;;;;;;;;;;5081885;28;20200;-69
2023/05/01 07:32:35;;;;;;;8.75;7.88;;;;;;;;;;5082340;28;20224;-69
2023/05/01 07:35:03;;;;;;;8.75;7.85;;;;;;;;;;5081987;28;20223;-69
2023/05/01 07:37:29;;;;;;;8.00;7.30;;;;;;;;;;5082000;28;20222;-69
2023/05/01 07:39:56;;;;;;;7.85;7.10;;;;;;;;;;5082031;28;20534;-69
2023/05/01 07:42:23;;;;;;;8.45;7.75;;;;;;;;;;5066124;28;20564;-69
2023/05/01 07:44:50;;;;;;;8.13;7.43;;;;;;;;;;5082022;28;20441;-69
2023/05/01 07:47:16;;;;;;;8.18;7.57;;;;;;;;;;5081903;28;20208;-69
2023/05/01 07:49:42;;;;;;;8.48;7.75;;;;;;;;;;5081884;28;20218;-69
2023/05/01 07:52:10;;;;;;;9.02;8.25;;;;;;;;;;5081855;28;20216;-69
2023/05/01 07:54:36;;;;;;;10.98;10.05;;;;;;;;;;5081858;28;20207;-69
2023/05/01 07:57:03;;;;;;;14.88;13.45;;;;;;;;;;5081676;28;20207;-69
2023/05/01 07:59:29;;;;;;;20.88;16.88;;;;;;;;;;5081811;28;20518;-69
2023/05/01 08:01:56;;;;;;;22.20;17.38;;;;;;;;;;5081931;28;20480;-69
2023/05/01 08:04:22;;;;;;;17.02;15.52;;;;;;;;;;5073434;28;20212;-69
2023/05/01 08:06:48;;;;;;;15.27;13.93;;;;;;;;;;5081632;28;20197;-69
2023/05/01 08:09:16;;;;;;;13.70;11.95;;;;;;;;;;5081570;28;20201;-69
2023/05/01 08:11:42;;;;;;;14.38;12.98;;;;;;;;;;5081884;28;20196;-69
2023/05/01 08:14:08;;;;;;;15.10;13.48;;;;;;;;;;5081485;28;20205;-69
2023/05/01 08:16:35;;;;;;;15.80;12.52;;;;;;;;;;5081771;28;20223;-69
2023/05/01 08:19:01;;;;;;;18.88;12.68;;;;;;;;;;5081376;28;20587;-69
2023/05/01 08:21:28;;;;;;;17.75;12.00;;;;;;;;;;5081627;28;20203;-69
2023/05/01 08:23:55;;;;;;;11.80;9.25;;;;;;;;;;5081644;28;20228;-69
2023/05/01 08:26:22;;;;;;;10.23;8.40;;;;;;;;;;5081541;28;20196;-69
2023/05/01 08:28:49;;;;;;;9.23;8.27;;;;;;;;;;5081537;28;20219;-69
2023/05/01 08:31:16;;;;;;;9.30;8.48;;;;;;;;;;5085061;28;20200;-69
2023/05/01 08:33:43;;;;;;;11.65;8.10;;;;;;;;;;5085084;28;20196;-69
2023/05/01 08:36:10;;;;;;;8.25;7.38;;;;;;;;;;5084890;28;20204;-69
2023/05/01 08:38:36;;;;;;;7.97;7.38;;;;;;;;;;5085013;28;20193;-69
2023/05/01 08:41:03;;;;;;;7.90;7.10;;;;;;;;;;5084923;28;20367;-69
2023/05/01 08:43:31;;;;;;;10.25;7.78;;;;;;;;;;5084928;28;20540;-69
2023/05/01 08:45:58;;;;;;;8.52;7.82;;;;;;;;;;5084905;28;20465;-69
2023/05/01 08:48:25;;;;;;;8.00;6.80;;;;;;;;;;5068370;28;20605;-69
2023/05/01 08:50:53;;;;;;;7.72;7.13;;;;;;;;;;5084652;28;20231;-69
2023/05/01 08:53:20;;;;;;;8.07;7.38;;;;;;;;;;5084758;28;20558;-69
2023/05/01 08:55:47;;;;;;;7.53;6.82;;;;;;;;;;5084736;28;20223;-69
2023/05/01 08:58:13;;;;;;;7.78;7.07;;;;;;;;;;5084518;28;20200;-69
2023/05/01 09:00:41;;;;;;;7.63;6.90;;;;;;;;;;5084447;28;20284;-69
2023/05/01 09:03:09;;;;;;;7.50;6.80;;;;;;;;;;5084266;28;20216;-69
2023/05/01 09:05:35;;;;;;;7.50;6.50;;;;;;;;;;5084430;28;20204;-69
2023/05/01 09:08:02;;;;;;;8.18;6.70;;;;;;;;;;5084461;28;20422;-69
2023/05/01 09:10:29;;;;;;;11.77;9.43;;;;;;;;;;5084415;28;20200;-69
2023/05/01 09:12:57;;;;;;;11.65;9.70;;;;;;;;;;5084288;28;20212;-69
2023/05/01 09:15:23;;;;;;;8.63;7.72;;;;;;;;;;5084223;28;20242;-69
2023/05/01 09:17:51;;;;;;;7.38;6.65;;;;;;;;;;5084171;28;20200;-69
2023/05/01 09:20:18;;;;;;;8.27;6.55;;;;;;;;;;5084192;28;20204;-69
2023/05/01 09:22:44;;;;;;;7.80;7.07;;;;;;;;;;5084373;28;20203;-69
2023/05/01 09:25:11;;;;;;;7.05;6.45;;;;;;;;;;5084215;28;20263;-69
2023/05/01 09:27:37;;;;;;;7.20;6.68;;;;;;;;;;5084095;28;20235;-69
2023/05/01 09:30:04;;;;;;;7.65;6.78;;;;;;;;;;5083840;28;20201;-69
2023/05/01 09:32:31;;;;;;;6.57;6.15;;;;;;;;;;5084333;28;20488;-69
2023/05/01 09:35:10;;;;;;;7.22;6.63;;;;;;;;;;5084030;28;20254;-69
2023/05/01 09:37:36;;;;;;;7.28;6.38;;;;;;;;;;5076762;28;20196;-69
2023/05/01 09:40:03;;;;;;;7.10;6.43;;;;;;;;;;5083574;28;20208;-69
2023/05/01 09:42:29;;;;;;;6.80;6.30;;;;;;;;;;5075784;28;20238;-69
2023/05/01 09:44:56;;;;;;;6.93;6.40;;;;;;;;;;5083542;28;20216;-69
2023/05/01 09:47:22;;;;;;;7.07;6.50;;;;;;;;;;5083853;28;20201;-69
2023/05/01 09:49:48;;;;;;;7.07;6.38;;;;;;;;;;5083762;28;20205;-69
2023/05/01 09:52:16;;;;;;;7.75;6.78;;;;;;;;;;5083689;28;20207;-69
2023/05/01 09:54:43;;;;;;;7.60;6.72;;;;;;;;;;5083671;28;20500;-69
2023/05/01 09:57:09;;;;;;;6.60;6.10;;;;;;;;;;5083329;28;20208;-69
2023/05/01 09:59:36;;;;;;;6.35;5.95;;;;;;;;;;5083247;28;20259;-69
2023/05/01 10:02:02;;;;;;;12.45;10.32;;;;;;;;;;5083659;28;20200;-69
2023/05/01 10:04:31;;;;;;;8.30;6.72;;;;;;;;;;5083310;28;20405;-69
2023/05/01 10:06:58;;;;;;;7.00;6.20;;;;;;;;;;5083520;28;20246;-69
2023/05/01 10:09:29;;;;;;;6.22;5.82;;;;;;;;;;5083071;28;20523;-69
2023/05/01 10:11:57;;;;;;;7.25;5.68;;;;;;;;;;5083496;28;20263;-69
2023/05/01 10:14:25;;;;;;;6.28;5.78;;;;;;;;;;5083061;28;20223;-69
2023/05/01 10:16:52;;;;;;;6.68;5.93;;;;;;;;;;5083214;28;20220;-69
2023/05/01 10:19:19;;;;;;;6.97;6.38;;;;;;;;;;5082734;28;20377;-69
2023/05/01 10:21:46;;;;;;;8.27;6.78;;;;;;;;;;5082887;28;20203;-69
2023/05/01 10:24:13;;;;;;;7.40;6.78;;;;;;;;;;5082742;28;20543;-69
2023/05/01 10:26:41;;;;;;;7.30;6.65;;;;;;;;;;5082680;28;20220;-69
2023/05/01 10:29:08;;;;;;;6.97;6.47;;;;;;;;;;5082581;28;20227;-69
2023/05/01 10:31:34;;;;;;;6.30;5.82;;;;;;;;;;5082664;28;20197;-69
2023/05/01 10:34:01;;;;;;;6.85;6.18;;;;;;;;;;5082735;28;20210;-69
2023/05/01 10:36:32;;;;;;;6.70;6.20;;;;;;;;;;5082640;28;20529;-69
2023/05/01 10:38:59;;;;;;;6.75;6.10;;;;;;;;;;5082668;28;20192;-69
2023/05/01 10:41:44;;;;;;;6.97;6.38;;;;;;;;;;5082960;28;20263;-69
2023/05/01 10:44:20;;;;;;;7.13;6.53;;;;;;;;;;5082695;28;20561;-68
2023/05/01 10:46:47;;;;;;;8.68;6.55;;;;;;;;;;5082630;28;20444;-68
2023/05/01 10:49:13;;;;;;;6.90;6.30;;;;;;;;;;5082300;28;20242;-68
2023/05/01 10:51:54;;;;;;;7.50;6.78;;;;;;;;;;5081887;28;20196;-68
2023/05/01 10:54:25;;;;;;;6.68;5.68;;;;;;;;;;5082669;28;20396;-68
2023/05/01 10:56:52;;;;;;;5.35;4.95;;;;;;;;;;5082523;28;20200;-68
2023/05/01 10:59:19;;;;;;;6.05;5.55;;;;;;;;;;5082370;28;20207;-68
2023/05/01 11:01:47;;;;;;;6.30;5.90;;;;;;;;;;5082534;28;20197;-68
2023/05/01 11:04:49;;;;;;;6.40;5.80;;;;;;;;;;5082094;28;20234;-68
2023/05/01 11:07:18;;;;;;;5.57;5.18;;;;;;;;;;5020511;28;20371;-68
2023/05/01 11:09:45;;;;;;;5.75;5.35;;;;;;;;;;5020375;28;20199;-68
2023/05/01 11:12:12;;;;;;;5.75;5.10;;;;;;;;;;5049203;28;20200;-68
2023/05/01 11:15:03;;;;;;;5.50;5.05;;;;;;;;;;5082092;28;20211;-68
2023/05/01 11:17:46;;;;;;;6.00;5.60;;;;;;;;;;5082343;28;20218;-69
2023/05/01 11:20:12;;;;;;;5.72;5.28;;;;;;;;;;5074974;28;20200;-69
2023/05/01 11:22:40;;;;;;;5.88;5.30;;;;;;;;;;5082096;28;20219;-69
2023/05/01 11:25:17;;;;;;;6.90;5.45;;;;;;;;;;5082007;28;20220;-69
2023/05/01 11:27:47;;;;;;;5.32;4.82;;;;;;;;;;5075147;28;20207;-62
2023/05/01 11:30:13;;;;;;;6.32;5.32;;;;;;;;;;5081980;28;20385;-62
2023/05/01 11:32:42;;;;;;;5.90;5.43;;;;;;;;;;5082055;28;20200;-61
2023/05/01 11:35:15;;;;;;;7.22;4.93;;;;;;;;;;5082716;28;20212;-61
2023/05/01 11:37:43;;;;;;;5.20;4.80;;;;;;;;;;5082007;28;20196;-61
2023/05/01 11:40:18;;;;;;;5.43;5.03;;;;;;;;;;5082063;28;20200;-61
2023/05/01 11:42:45;;;;;;;5.20;4.97;;;;;;;;;;5075441;28;20203;-62
2023/05/01 11:45:11;;;;;;;6.05;5.57;;;;;;;;;;5081987;28;20224;-62
2023/05/01 11:47:37;;;;;;;6.38;5.78;;;;;;;;;;5082513;28;20546;-61
2023/05/01 11:50:04;;;;;;;6.10;5.55;;;;;;;;;;5082589;28;20373;-61
2023/05/01 11:52:40;;;;;;;5.63;5.22;;;;;;;;;;5082760;28;20204;-61
2023/05/01 11:55:07;;;;;;;5.30;4.80;;;;;;;;;;5082422;28;20203;-61
2023/05/01 11:57:44;;;;;;;6.28;5.00;;;;;;;;;;5081916;28;20503;-61
2023/05/01 12:00:11;;;;;;;6.65;5.63;;;;;;;;;;5081698;28;20200;-62
2023/05/01 12:02:37;;;;;;;4.38;4.07;;;;;;;;;;5073445;28;20196;-62
2023/05/01 12:05:14;;;;;;;5.88;4.88;;;;;;;;;;5084304;28;20220;-62
2023/05/01 12:07:42;;;;;;;5.28;4.85;;;;;;;;;;5077810;28;20236;-61
2023/05/01 12:10:08;;;;;;;5.45;5.05;;;;;;;;;;5085314;28;20504;-61
2023/05/01 12:12:35;;;;;;;5.63;5.20;;;;;;;;;;5085334;28;20250;-62
2023/05/01 12:15:01;;;;;;;5.20;4.90;;;;;;;;;;5085109;28;20266;-61
2023/05/01 12:17:28;;;;;;;5.93;5.43;;;;;;;;;;5085410;28;20200;-61
2023/05/01 12:19:56;;;;;;;6.10;5.68;;;;;;;;;;5085361;28;20207;-61
2023/05/01 12:22:22;;;;;;;6.05;5.60;;;;;;;;;;5085294;28;20223;-61
2023/05/01 12:24:52;;;;;;;6.43;5.80;;;;;;;;;;5085177;28;20212;-61
2023/05/01 12:27:19;;;;;;;5.53;4.93;;;;;;;;;;5084826;28;20227;-61
2023/05/01 12:29:46;;;;;;;4.85;4.55;;;;;;;;;;5085057;28;20242;-62
2023/05/01 12:32:13;;;;;;;5.20;4.75;;;;;;;;;;5085113;28;20222;-62
2023/05/01 12:34:40;;;;;;;5.28;4.80;;;;;;;;;;5084998;28;20199;-61
2023/05/01 12:37:06;;;;;;;5.30;4.97;;;;;;;;;;5085072;28;20267;-61
2023/05/01 12:39:37;;;;;;;6.18;5.55;;;;;;;;;;5085229;28;20201;-61
2023/05/01 12:42:11;;;;;;;6.45;5.78;;;;;;;;;;5084835;28;20207;-62
2023/05/01 12:44:37;;;;;;;5.93;4.97;;;;;;;;;;5085665;28;20554;-61
2023/05/01 12:47:04;;;;;;;6.47;5.53;;;;;;;;;;5085505;28;20207;-61
2023/05/01 12:49:31;;;;;;;6.13;5.65;;;;;;;;;;5085275;28;20207;-61
2023/05/01 12:51:59;;;;;;;6.80;6.18;;;;;;;;;;5085695;28;20207;-61
2023/05/01 12:54:27;;;;;;;7.40;6.75;;;;;;;;;;5085423;28;20215;-61
2023/05/01 12:56:53;;;;;;;6.65;6.20;;;;;;;;;;5085273;28;20192;-61
2023/05/01 12:59:24;;;;;;;6.50;5.90;;;;;;;;;;5084821;28;20394;-61
2023/05/01 13:01:57;;;;;;;5.65;5.35;;;;;;;;;;5085115;28;20219;-61
2023/05/01 13:04:24;;;;;;;6.22;5.65;;;;;;;;;;5084913;28;20204;-61
2023/05/01 13:06:50;;;;;;;6.43;5.82;;;;;;;;;;5085260;28;20200;-61
2023/05/01 13:09:17;;;;;;;6.90;6.40;;;;;;;;;;5084643;28;20559;-61
2023/05/01 13:11:43;;;;;;;7.22;5.95;;;;;;;;;;5085133;28;20204;-61
2023/05/01 13:14:09;;;;;;;6.68;6.18;;;;;;;;;;5084801;28;20204;-63
2023/05/01 13:16:45;;;;;;;6.38;5.78;;;;;;;;;;5084603;28;20211;-61
2023/05/01 13:19:11;;;;;;;6.47;5.88;;;;;;;;;;5084886;28;20347;-61
2023/05/01 13:21:46;;;;;;;5.95;5.55;;;;;;;;;;5085071;28;20327;-61
2023/05/01 13:24:13;;;;;;;6.50;5.90;;;;;;;;;;5084497;28;20234;-62
2023/05/01 13:26:39;;;;;;;6.45;5.93;;;;;;;;;;5084295;28;20223;-61
2023/05/01 13:29:06;;;;;;;6.93;6.30;;;;;;;;;;5084275;28;20220;-61
2023/05/01 13:31:32;;;;;;;6.28;5.63;;;;;;;;;;5084393;28;20200;-61
2023/05/01 13:34:01;;;;;;;6.35;5.82;;;;;;;;;;5084452;28;20457;-61
2023/05/01 13:36:31;;;;;;;7.20;5.60;;;;;;;;;;5084132;28;20605;-61
2023/05/01 13:38:58;;;;;;;5.68;5.20;;;;;;;;;;5083950;28;20208;-61
2023/05/01 13:41:25;;;;;;;6.38;5.68;;;;;;;;;;5084149;28;20570;-61
2023/05/01 13:43:52;;;;;;;6.22;5.72;;;;;;;;;;5083991;28;20639;-62
2023/05/01 13:46:20;;;;;;;6.20;5.63;;;;;;;;;;5083884;28;20281;-61
2023/05/01 13:48:46;;;;;;;6.95;6.13;;;;;;;;;;5083614;28;20204;-62
2023/05/01 13:51:14;;;;;;;7.65;6.95;;;;;;;;;;5084182;28;20208;-61
2023/05/01 13:53:42;;;;;;;8.82;7.18;;;;;;;;;;5084493;28;20428;-61
2023/05/01 13:56:09;;;;;;;7.40;6.80;;;;;;;;;;5084445;28;20204;-61
2023/05/01 13:58:35;;;;;;;6.95;6.38;;;;;;;;;;5083732;28;20246;-61
2023/05/01 14:01:02;;;;;;;6.82;6.30;;;;;;;;;;5084072;28;20200;-61
2023/05/01 14:03:30;;;;;;;8.73;7.78;;;;;;;;;;5084117;28;20467;-61
2023/05/01 14:05:56;;;;;;;8.57;7.78;;;;;;;;;;5084006;28;20536;-61
2023/05/01 14:08:26;;;;;;;8.88;8.18;;;;;;;;;;5084081;28;20378;-61
2023/05/01 14:10:53;;;;;;;10.10;8.68;;;;;;;;;;5083957;28;20224;-61
2023/05/01 14:13:19;;;;;;;10.20;9.30;;;;;;;;;;5084112;28;20204;-62
2023/05/01 14:15:46;;;;;;;10.75;9.75;;;;;;;;;;5084178;28;20198;-60
2023/05/01 14:18:15;;;;;;;11.52;10.10;;;;;;;;;;5084057;28;20206;-60
2023/05/01 14:20:42;;;;;;;11.63;10.35;;;;;;;;;;5084221;28;20242;-61
2023/05/01 14:23:09;;;;;;;11.65;10.55;;;;;;;;;;5084329;28;20204;-62
2023/05/01 14:25:38;;;;;;;12.00;10.73;;;;;;;;;;5082970;28;20436;-62
2023/05/01 14:28:06;;;;;;;12.80;10.55;;;;;;;;;;5081955;28;20420;-62
2023/05/01 14:30:36;;;;;;;13.10;10.68;;;;;;;;;;5083006;28;20213;-61
2023/05/01 14:33:02;;;;;;;11.20;10.10;;;;;;;;;;5082978;28;20200;-61
2023/05/01 14:35:29;;;;;;;10.93;10.00;;;;;;;;;;5079936;28;20515;-61
2023/05/01 14:37:55;;;;;;;10.88;9.82;;;;;;;;;;5075543;28;20205;-61
2023/05/01 14:40:25;;;;;;;11.80;10.52;;;;;;;;;;5076338;28;20206;-61
2023/05/01 14:42:53;;;;;;;11.40;10.50;;;;;;;;;;5082592;28;20504;-61